Aviation Digital Data Service (ADDS)

Output produced by METARs form (0645 UTC 19 February 2019)
found at http://www.aviationweather.gov/metar/data/
 
Forecast for: PGWT (PEIPEINIMARU/TIN, GU, US)
Text: PGWT 190527Z 1906/2006 08015G24KT P6SM VCSH SCT016 SCT060 BKN100
Forecast period: 0600 UTC 19 February 2019 to 0600 UTC 20 February 2019
Forecast type: FROM: standard forecast or significant change
Winds: from the E (80 degrees) at 17 MPH (15 knots; 7.7 m/s)
gusting to 28 MPH (24 knots; 12.3 m/s)
Visibility: 6 or more miles 10+ km)
Ceiling: 10000 feet AGL
Clouds: scattered clouds at 1600 feet AGL
scattered clouds at 6000 feet AGL
broken clouds at 10000 feet AGL
Weather: VCSH  (showers in vicinity)